« Back
NWS Peachtree City, Ga » Text Product » AHN Terminal Aerodrome Forecast


Printer-friendly Version
Current Version              Previous Versions:   1  2  3  4  5  6  7  8  9  

Terminal Aerodrome Forecast

017
FTAK31 PAJN 271100
TAFAHN
TAF
PAHN 271127Z 2712/2812 30015G21KT P6SM BKN007 BKN050
      TEMPO 2712/2715 5SM BR BKN007
     FM271900 30010KT P6SM SCT100
     FM280200 30009KT P6SM BKN100
      AMD LTD TO CLD VIS AND WIND=

USA.gov is the U.S. government's official web portal to all federal, state and local government web resources and services.